createdAt,value
2023-02-19T00:01:49.230Z,28.33
2023-02-19T00:04:23.858Z,31.40
2023-02-19T00:06:56.008Z,26.77
2023-02-19T00:09:28.476Z,30.25
2023-02-19T00:12:00.573Z,28.00
2023-02-19T00:14:32.652Z,26.67
2023-02-19T00:17:04.626Z,24.67
2023-02-19T00:19:36.697Z,26.70
2023-02-19T00:22:08.687Z,27.50
2023-02-19T00:24:40.815Z,28.83
2023-02-19T00:27:12.798Z,24.55
2023-02-19T00:29:44.784Z,23.88
2023-02-19T00:32:16.769Z,23.48
2023-02-19T00:34:48.783Z,24.85
2023-02-19T00:37:20.749Z,18.65
2023-02-19T00:39:52.892Z,23.73
2023-02-19T00:42:25.863Z,24.17
2023-02-19T00:44:57.947Z,19.23
2023-02-19T00:47:30.026Z,21.10
2023-02-19T00:50:02.117Z,18.05
2023-02-19T00:52:34.235Z,24.02
2023-02-19T00:55:06.654Z,20.63
2023-02-19T00:57:38.997Z,25.38
2023-02-19T01:00:13.930Z,24.00
2023-02-19T01:02:45.993Z,23.08
2023-02-19T01:05:18.168Z,21.38
2023-02-19T01:07:50.124Z,19.92
2023-02-19T01:10:22.221Z,23.17
2023-02-19T01:12:54.193Z,19.40
2023-02-19T01:15:26.248Z,16.75
2023-02-19T01:17:58.295Z,15.43
2023-02-19T01:20:30.312Z,14.88
2023-02-19T01:23:02.298Z,17.67
2023-02-19T01:25:34.462Z,11.85
2023-02-19T01:28:07.034Z,11.65
2023-02-19T01:30:39.634Z,11.70
2023-02-19T01:33:11.666Z,12.98
2023-02-19T01:35:43.668Z,11.50
2023-02-19T01:38:15.684Z,11.45
2023-02-19T01:40:59.942Z,8.88
2023-02-19T01:43:53.740Z,10.23
2023-02-19T01:46:35.190Z,9.85
2023-02-19T01:49:20.865Z,12.88
2023-02-19T01:52:20.806Z,12.57
2023-02-19T01:54:54.674Z,11.50
2023-02-19T01:57:33.400Z,10.57
2023-02-19T02:00:13.217Z,9.40
2023-02-19T02:02:52.294Z,13.98
2023-02-19T02:05:45.270Z,10.98
2023-02-19T02:08:37.180Z,12.38
2023-02-19T02:11:09.770Z,10.75
2023-02-19T02:13:42.291Z,10.75
2023-02-19T02:16:24.334Z,12.55
2023-02-19T02:19:31.913Z,12.25
2023-02-19T02:22:08.300Z,10.10
2023-02-19T02:25:18.493Z,10.80
2023-02-19T02:28:07.888Z,11.80
2023-02-19T02:31:19.980Z,11.47
2023-02-19T02:34:03.715Z,15.80
2023-02-19T02:36:43.971Z,12.52
2023-02-19T02:42:14.852Z,15.93
2023-02-19T02:45:07.019Z,12.70
2023-02-19T02:47:53.807Z,14.55
2023-02-19T02:50:33.078Z,15.63
2023-02-19T02:53:31.817Z,19.42
2023-02-19T02:56:05.326Z,17.05
2023-02-19T02:58:38.478Z,11.88
2023-02-19T03:01:42.868Z,13.90
2023-02-19T03:04:35.416Z,11.20
2023-02-19T03:07:10.258Z,11.07
2023-02-19T03:09:44.500Z,13.30
2023-02-19T03:12:45.538Z,13.32
2023-02-19T03:15:37.898Z,14.85
2023-02-19T03:18:30.905Z,13.20
2023-02-19T03:21:04.388Z,17.20
2023-02-19T03:23:56.084Z,18.52
2023-02-19T03:26:28.676Z,17.05
2023-02-19T03:29:21.986Z,18.58
2023-02-19T03:32:03.529Z,26.48
2023-02-19T03:34:45.092Z,8.55
2023-02-19T03:37:25.452Z,15.90
2023-02-19T03:39:58.257Z,11.13
2023-02-19T03:43:05.529Z,14.48
2023-02-19T03:45:50.342Z,13.18
2023-02-19T03:48:37.241Z,7.50
2023-02-19T03:51:44.219Z,6.82
2023-02-19T03:54:26.079Z,20.63
2023-02-19T03:57:20.856Z,15.60
2023-02-19T04:00:23.147Z,10.73
2023-02-19T04:03:20.696Z,12.18
2023-02-19T04:06:01.668Z,17.02
2023-02-19T04:08:37.276Z,10.05
2023-02-19T04:11:10.982Z,8.63
2023-02-19T04:13:54.070Z,8.27
2023-02-19T04:16:29.717Z,11.13
2023-02-19T04:19:18.273Z,12.98
2023-02-19T04:21:52.375Z,12.38
2023-02-19T04:24:44.744Z,11.85
2023-02-19T04:27:17.381Z,10.93
2023-02-19T04:29:49.510Z,9.73
2023-02-19T04:32:21.652Z,11.75
2023-02-19T04:34:54.474Z,11.95
2023-02-19T04:37:26.706Z,7.05
2023-02-19T04:39:58.849Z,12.73
2023-02-19T04:42:30.858Z,7.72
2023-02-19T04:45:02.938Z,6.53
2023-02-19T04:47:35.004Z,10.40
2023-02-19T04:50:07.908Z,16.13
2023-02-19T04:52:39.971Z,9.45
2023-02-19T04:55:11.972Z,7.30
2023-02-19T04:57:44.075Z,7.80
2023-02-19T05:00:16.282Z,7.00
2023-02-19T05:02:48.300Z,9.50
2023-02-19T05:05:20.240Z,7.40
2023-02-19T05:07:52.223Z,10.60
2023-02-19T05:10:24.260Z,15.40
2023-02-19T05:12:57.963Z,11.60
2023-02-19T05:15:30.137Z,11.80
2023-02-19T05:18:02.125Z,9.43
2023-02-19T05:20:34.133Z,13.65
2023-02-19T05:23:06.113Z,6.93
2023-02-19T05:25:38.068Z,9.43
2023-02-19T05:28:19.388Z,10.57
2023-02-19T05:30:53.227Z,9.30
2023-02-19T05:33:26.578Z,10.25
2023-02-19T05:35:58.766Z,12.60
2023-02-19T05:38:30.747Z,11.65
2023-02-19T05:41:14.390Z,8.20
2023-02-19T05:43:48.867Z,10.73
2023-02-19T05:46:24.442Z,12.07
2023-02-19T05:48:56.952Z,11.32
2023-02-19T05:51:29.402Z,16.25
2023-02-19T05:54:01.550Z,9.13
2023-02-19T05:56:40.370Z,14.68
2023-02-19T05:59:23.726Z,20.52
2023-02-19T06:01:55.932Z,18.08
2023-02-19T06:04:27.980Z,9.73
2023-02-19T06:06:59.942Z,13.32
2023-02-19T06:09:32.474Z,16.58
2023-02-19T06:12:04.806Z,14.98
2023-02-19T06:14:36.869Z,11.13
2023-02-19T06:17:08.947Z,13.02
2023-02-19T06:19:41.166Z,10.02
2023-02-19T06:22:15.663Z,9.13
2023-02-19T06:24:48.305Z,8.02
2023-02-19T06:27:20.363Z,19.27
2023-02-19T06:29:52.526Z,9.82
2023-02-19T06:32:24.706Z,12.45
2023-02-19T06:34:56.856Z,7.93
2023-02-19T06:37:29.559Z,8.73
2023-02-19T06:40:01.627Z,10.93
2023-02-19T06:42:33.657Z,14.00
2023-02-19T06:45:06.340Z,10.75
2023-02-19T06:47:38.325Z,12.32
2023-02-19T06:50:10.439Z,17.70
2023-02-19T06:56:27.007Z,11.88
2023-02-19T07:01:35.555Z,16.10
2023-02-19T07:04:08.149Z,10.25
2023-02-19T07:06:40.459Z,11.40
2023-02-19T07:09:12.922Z,12.43
2023-02-19T07:11:45.725Z,9.65
2023-02-19T07:14:17.900Z,6.97
2023-02-19T07:16:50.113Z,4.38
2023-02-19T07:19:22.121Z,11.35
2023-02-19T07:21:54.120Z,9.18
2023-02-19T07:24:26.176Z,10.68
2023-02-19T07:26:58.237Z,10.07
2023-02-19T07:29:30.179Z,18.25
2023-02-19T07:32:02.331Z,14.27
2023-02-19T07:34:34.385Z,10.98
2023-02-19T07:37:06.465Z,12.35
2023-02-19T07:39:38.422Z,15.50
2023-02-19T07:42:10.528Z,20.45
2023-02-19T07:44:42.546Z,10.63
2023-02-19T07:47:14.802Z,15.98
2023-02-19T07:49:46.777Z,16.20
2023-02-19T07:52:18.770Z,14.50
2023-02-19T07:54:50.729Z,20.60
2023-02-19T07:57:22.783Z,20.65
2023-02-19T07:59:57.257Z,9.73
2023-02-19T08:02:47.529Z,11.88
2023-02-19T08:08:14.430Z,21.00
2023-02-19T08:12:10.948Z,15.73
2023-02-19T08:14:43.096Z,9.55
2023-02-19T08:17:15.156Z,16.98
2023-02-19T08:19:47.265Z,11.60
2023-02-19T08:22:19.284Z,17.27
2023-02-19T08:24:51.274Z,19.50
2023-02-19T08:27:23.268Z,28.98
2023-02-19T08:29:55.261Z,18.55
2023-02-19T08:32:27.297Z,19.27
2023-02-19T08:34:59.412Z,21.77
2023-02-19T08:37:31.475Z,19.33
2023-02-19T08:40:03.907Z,16.20
2023-02-19T08:42:35.870Z,21.58
2023-02-19T08:45:08.661Z,20.67
2023-02-19T08:47:41.138Z,28.08
2023-02-19T08:50:13.481Z,22.75
2023-02-19T08:52:45.454Z,26.92
2023-02-19T08:55:18.077Z,21.80
2023-02-19T08:57:50.702Z,24.25
2023-02-19T09:00:23.131Z,24.17
2023-02-19T09:02:55.112Z,22.65
2023-02-19T09:05:27.205Z,18.30
2023-02-19T09:07:59.475Z,19.73
2023-02-19T09:10:31.644Z,23.02
2023-02-19T09:13:03.688Z,19.23
2023-02-19T09:15:38.250Z,27.98
2023-02-19T09:18:10.212Z,23.90
2023-02-19T09:20:42.296Z,19.33
2023-02-19T09:23:14.245Z,20.77
2023-02-19T09:25:46.368Z,22.98
2023-02-19T09:28:18.411Z,15.13
2023-02-19T09:31:06.628Z,14.07
2023-02-19T09:33:43.645Z,12.85
2023-02-19T09:36:22.350Z,9.98
2023-02-19T09:38:54.772Z,11.80
2023-02-19T09:41:32.060Z,11.20
2023-02-19T09:44:09.501Z,18.27
2023-02-19T09:46:47.008Z,15.70
2023-02-19T09:49:26.459Z,14.65
2023-02-19T09:52:02.569Z,11.13
2023-02-19T09:54:35.289Z,13.98
2023-02-19T09:57:19.798Z,8.38
2023-02-19T10:00:00.470Z,6.68
2023-02-19T10:02:33.580Z,15.45
2023-02-19T10:05:15.151Z,4.45
2023-02-19T10:07:51.470Z,8.40
2023-02-19T10:10:36.161Z,19.80
2023-02-19T10:13:23.434Z,17.10
2023-02-19T10:15:59.407Z,11.40
2023-02-19T10:18:44.082Z,6.68
2023-02-19T10:21:28.043Z,9.82
2023-02-19T10:24:03.009Z,8.68
2023-02-19T10:26:36.832Z,7.93
2023-02-19T10:29:10.914Z,10.80
2023-02-19T10:31:43.005Z,11.05
2023-02-19T10:34:22.808Z,8.73
2023-02-19T10:36:54.813Z,6.05
2023-02-19T10:39:42.833Z,15.82
2023-02-19T10:42:23.068Z,6.65
2023-02-19T10:47:35.943Z,3.40
2023-02-19T10:50:47.100Z,7.50
2023-02-19T10:53:24.430Z,8.45
2023-02-19T10:56:25.720Z,6.43
2023-02-19T10:59:28.621Z,6.55
2023-02-19T11:02:04.507Z,5.82
2023-02-19T11:04:38.102Z,11.40
2023-02-19T11:07:18.403Z,4.32
2023-02-19T11:12:30.265Z,12.07
2023-02-19T11:15:29.098Z,10.35
2023-02-19T11:18:13.129Z,8.23
2023-02-19T11:21:03.809Z,5.95
2023-02-19T11:23:44.080Z,7.80
2023-02-19T11:29:03.434Z,9.77
2023-02-19T11:31:36.302Z,6.30
2023-02-19T11:34:14.290Z,5.72
2023-02-19T11:36:46.216Z,5.78
2023-02-19T11:39:18.157Z,6.25
2023-02-19T11:42:12.092Z,12.95
2023-02-19T11:45:34.768Z,6.45
2023-02-19T11:48:25.136Z,9.85
